sensor_id;sensor_type;location;lat;lon;timestamp;temperature;humidity
70214;DHT22;60138;55.808;37.078;2024-02-14T00:02:24;-9.34;76.62
70214;DHT22;60138;55.808;37.078;2024-02-14T00:04:50;-9.36;76.50
70214;DHT22;60138;55.808;37.078;2024-02-14T00:07:16;-9.37;76.28
70214;DHT22;60138;55.808;37.078;2024-02-14T00:09:42;-9.37;76.49
70214;DHT22;60138;55.808;37.078;2024-02-14T00:12:07;-9.38;76.28
70214;DHT22;60138;55.808;37.078;2024-02-14T00:14:33;-9.36;76.40
70214;DHT22;60138;55.808;37.078;2024-02-14T00:16:59;-9.39;76.12
70214;DHT22;60138;55.808;37.078;2024-02-14T00:19:25;-9.39;76.26
70214;DHT22;60138;55.808;37.078;2024-02-14T00:21:50;-9.39;76.28
70214;DHT22;60138;55.808;37.078;2024-02-14T00:24:16;-9.41;76.18
70214;DHT22;60138;55.808;37.078;2024-02-14T00:26:42;-9.41;76.19
70214;DHT22;60138;55.808;37.078;2024-02-14T00:29:08;-9.42;76.14
70214;DHT22;60138;55.808;37.078;2024-02-14T00:31:33;-9.43;76.16
70214;DHT22;60138;55.808;37.078;2024-02-14T00:34:19;-9.43;76.27
70214;DHT22;60138;55.808;37.078;2024-02-14T00:36:45;-9.44;76.18
70214;DHT22;60138;55.808;37.078;2024-02-14T00:39:10;-9.44;76.31
70214;DHT22;60138;55.808;37.078;2024-02-14T00:41:36;-9.45;76.21
70214;DHT22;60138;55.808;37.078;2024-02-14T00:44:02;-9.44;76.21
70214;DHT22;60138;55.808;37.078;2024-02-14T00:46:28;-9.46;76.13
70214;DHT22;60138;55.808;37.078;2024-02-14T00:48:54;-9.46;76.09
70214;DHT22;60138;55.808;37.078;2024-02-14T00:51:21;-9.46;76.25
70214;DHT22;60138;55.808;37.078;2024-02-14T00:53:47;-9.47;76.18
70214;DHT22;60138;55.808;37.078;2024-02-14T00:56:13;-9.49;75.99
70214;DHT22;60138;55.808;37.078;2024-02-14T00:58:39;-9.49;76.06
70214;DHT22;60138;55.808;37.078;2024-02-14T01:01:05;-9.49;76.14
70214;DHT22;60138;55.808;37.078;2024-02-14T01:03:31;-9.51;76.09
70214;DHT22;60138;55.808;37.078;2024-02-14T01:05:57;-9.53;75.95
70214;DHT22;60138;55.808;37.078;2024-02-14T01:08:23;-9.54;75.92
70214;DHT22;60138;55.808;37.078;2024-02-14T01:10:48;-9.54;75.99
70214;DHT22;60138;55.808;37.078;2024-02-14T01:13:14;-9.54;76.07
70214;DHT22;60138;55.808;37.078;2024-02-14T01:15:40;-9.55;76.19
70214;DHT22;60138;55.808;37.078;2024-02-14T01:18:06;-9.54;76.08
70214;DHT22;60138;55.808;37.078;2024-02-14T01:20:31;-9.53;76.32
70214;DHT22;60138;55.808;37.078;2024-02-14T01:22:57;-9.55;75.73
70214;DHT22;60138;55.808;37.078;2024-02-14T01:25:30;-9.58;75.78
70214;DHT22;60138;55.808;37.078;2024-02-14T01:27:56;-9.57;75.94
70214;DHT22;60138;55.808;37.078;2024-02-14T01:30:22;-9.60;75.93
70214;DHT22;60138;55.808;37.078;2024-02-14T01:32:47;-9.59;75.99
70214;DHT22;60138;55.808;37.078;2024-02-14T01:35:13;-9.63;75.70
70214;DHT22;60138;55.808;37.078;2024-02-14T01:37:39;-9.66;75.78
70214;DHT22;60138;55.808;37.078;2024-02-14T01:40:06;-9.68;75.39
70214;DHT22;60138;55.808;37.078;2024-02-14T01:42:47;-9.71;75.54
70214;DHT22;60138;55.808;37.078;2024-02-14T01:45:13;-9.72;75.65
70214;DHT22;60138;55.808;37.078;2024-02-14T01:47:49;-9.72;75.73
70214;DHT22;60138;55.808;37.078;2024-02-14T01:50:15;-9.72;75.80
70214;DHT22;60138;55.808;37.078;2024-02-14T01:52:41;-9.74;75.73
70214;DHT22;60138;55.808;37.078;2024-02-14T01:55:07;-9.75;75.50
70214;DHT22;60138;55.808;37.078;2024-02-14T01:57:36;-9.77;75.79
70214;DHT22;60138;55.808;37.078;2024-02-14T02:00:04;-9.78;75.62
70214;DHT22;60138;55.808;37.078;2024-02-14T02:02:38;-9.81;75.91
70214;DHT22;60138;55.808;37.078;2024-02-14T02:05:07;-9.79;76.03
70214;DHT22;60138;55.808;37.078;2024-02-14T02:07:33;-9.82;75.87
70214;DHT22;60138;55.808;37.078;2024-02-14T02:09:58;-9.85;75.86
70214;DHT22;60138;55.808;37.078;2024-02-14T02:12:24;-9.87;75.63
70214;DHT22;60138;55.808;37.078;2024-02-14T02:15:10;-9.89;75.69
70214;DHT22;60138;55.808;37.078;2024-02-14T02:17:56;-9.91;75.67
70214;DHT22;60138;55.808;37.078;2024-02-14T02:20:41;-9.93;75.62
70214;DHT22;60138;55.808;37.078;2024-02-14T02:23:07;-9.94;75.54
70214;DHT22;60138;55.808;37.078;2024-02-14T02:25:43;-9.98;75.31
70214;DHT22;60138;55.808;37.078;2024-02-14T02:28:29;-10.00;75.25
70214;DHT22;60138;55.808;37.078;2024-02-14T02:30:55;-10.00;75.51
70214;DHT22;60138;55.808;37.078;2024-02-14T02:33:22;-10.03;75.38
70214;DHT22;60138;55.808;37.078;2024-02-14T02:35:50;-10.01;75.60
70214;DHT22;60138;55.808;37.078;2024-02-14T02:38:36;-10.04;75.41
70214;DHT22;60138;55.808;37.078;2024-02-14T02:41:21;-10.06;75.46
70214;DHT22;60138;55.808;37.078;2024-02-14T02:44:07;-10.10;75.54
70214;DHT22;60138;55.808;37.078;2024-02-14T02:47:02;-10.11;75.47
70214;DHT22;60138;55.808;37.078;2024-02-14T02:49:48;-10.12;75.38
70214;DHT22;60138;55.808;37.078;2024-02-14T02:52:36;-10.17;75.44
70214;DHT22;60138;55.808;37.078;2024-02-14T02:55:22;-10.16;75.63
70214;DHT22;60138;55.808;37.078;2024-02-14T02:57:59;-10.18;75.67
70214;DHT22;60138;55.808;37.078;2024-02-14T03:00:25;-10.20;75.66
70214;DHT22;60138;55.808;37.078;2024-02-14T03:03:07;-10.21;75.71
70214;DHT22;60138;55.808;37.078;2024-02-14T03:05:54;-10.25;75.86
70214;DHT22;60138;55.808;37.078;2024-02-14T03:08:39;-10.23;75.67
70214;DHT22;60138;55.808;37.078;2024-02-14T03:11:26;-10.27;75.62
70214;DHT22;60138;55.808;37.078;2024-02-14T03:14:12;-10.29;75.51
70214;DHT22;60138;55.808;37.078;2024-02-14T03:17:02;-10.30;75.74
70214;DHT22;60138;55.808;37.078;2024-02-14T03:19:28;-10.31;75.63
70214;DHT22;60138;55.808;37.078;2024-02-14T03:21:54;-10.35;75.53
70214;DHT22;60138;55.808;37.078;2024-02-14T03:24:20;-10.37;75.45
70214;DHT22;60138;55.808;37.078;2024-02-14T03:26:46;-10.38;75.51
70214;DHT22;60138;55.808;37.078;2024-02-14T03:29:12;-10.37;75.70
70214;DHT22;60138;55.808;37.078;2024-02-14T03:31:38;-10.38;75.52
70214;DHT22;60138;55.808;37.078;2024-02-14T03:34:05;-10.38;75.51
70214;DHT22;60138;55.808;37.078;2024-02-14T03:36:31;-10.43;75.34
70214;DHT22;60138;55.808;37.078;2024-02-14T03:38:57;-10.45;75.19
70214;DHT22;60138;55.808;37.078;2024-02-14T03:41:22;-10.47;75.16
70214;DHT22;60138;55.808;37.078;2024-02-14T03:43:48;-10.46;75.02
70214;DHT22;60138;55.808;37.078;2024-02-14T03:46:14;-10.46;75.34
70214;DHT22;60138;55.808;37.078;2024-02-14T03:48:43;-10.46;75.42
70214;DHT22;60138;55.808;37.078;2024-02-14T03:51:08;-10.46;75.31
70214;DHT22;60138;55.808;37.078;2024-02-14T03:53:34;-10.46;75.36
70214;DHT22;60138;55.808;37.078;2024-02-14T03:56:00;-10.48;75.24
70214;DHT22;60138;55.808;37.078;2024-02-14T03:58:26;-10.52;74.72
70214;DHT22;60138;55.808;37.078;2024-02-14T04:00:52;-10.52;75.08
70214;DHT22;60138;55.808;37.078;2024-02-14T04:03:18;-10.51;75.36
70214;DHT22;60138;55.808;37.078;2024-02-14T04:05:44;-10.49;75.41
70214;DHT22;60138;55.808;37.078;2024-02-14T04:08:11;-10.51;75.38
70214;DHT22;60138;55.808;37.078;2024-02-14T04:10:38;-10.51;75.50
70214;DHT22;60138;55.808;37.078;2024-02-14T04:13:04;-10.53;75.44
70214;DHT22;60138;55.808;37.078;2024-02-14T04:15:30;-10.52;75.38
70214;DHT22;60138;55.808;37.078;2024-02-14T04:18:10;-10.53;75.34
70214;DHT22;60138;55.808;37.078;2024-02-14T04:20:36;-10.57;75.08
70214;DHT22;60138;55.808;37.078;2024-02-14T04:23:02;-10.58;74.80
70214;DHT22;60138;55.808;37.078;2024-02-14T04:25:28;-10.60;74.87
70214;DHT22;60138;55.808;37.078;2024-02-14T04:27:53;-10.62;74.58
70214;DHT22;60138;55.808;37.078;2024-02-14T04:30:19;-10.63;74.83
70214;DHT22;60138;55.808;37.078;2024-02-14T04:33:05;-10.64;74.85
70214;DHT22;60138;55.808;37.078;2024-02-14T04:35:31;-10.65;74.90
70214;DHT22;60138;55.808;37.078;2024-02-14T04:37:56;-10.65;74.96
70214;DHT22;60138;55.808;37.078;2024-02-14T04:40:22;-10.64;75.09
70214;DHT22;60138;55.808;37.078;2024-02-14T04:42:48;-10.61;75.09
70214;DHT22;60138;55.808;37.078;2024-02-14T04:45:14;-10.62;74.97
70214;DHT22;60138;55.808;37.078;2024-02-14T04:48:00;-10.64;74.83
70214;DHT22;60138;55.808;37.078;2024-02-14T04:50:25;-10.60;75.14
70214;DHT22;60138;55.808;37.078;2024-02-14T04:52:51;-10.58;75.31
70214;DHT22;60138;55.808;37.078;2024-02-14T04:55:17;-10.55;75.40
70214;DHT22;60138;55.808;37.078;2024-02-14T04:57:44;-10.52;75.43
70214;DHT22;60138;55.808;37.078;2024-02-14T05:00:11;-10.52;75.35
70214;DHT22;60138;55.808;37.078;2024-02-14T05:02:37;-10.52;74.99
70214;DHT22;60138;55.808;37.078;2024-02-14T05:05:02;-10.51;74.77
70214;DHT22;60138;55.808;37.078;2024-02-14T05:07:31;-10.52;74.70
70214;DHT22;60138;55.808;37.078;2024-02-14T05:09:57;-10.49;74.87
70214;DHT22;60138;55.808;37.078;2024-02-14T05:12:23;-10.45;74.80
70214;DHT22;60138;55.808;37.078;2024-02-14T05:14:49;-10.41;74.72
70214;DHT22;60138;55.808;37.078;2024-02-14T05:17:14;-10.36;74.63
70214;DHT22;60138;55.808;37.078;2024-02-14T05:19:43;-10.33;74.13
70214;DHT22;60138;55.808;37.078;2024-02-14T05:22:09;-10.30;74.15
70214;DHT22;60138;55.808;37.078;2024-02-14T05:24:35;-10.28;73.97
70214;DHT22;60138;55.808;37.078;2024-02-14T05:27:01;-10.26;74.35
70214;DHT22;60138;55.808;37.078;2024-02-14T05:29:27;-10.21;74.76
70214;DHT22;60138;55.808;37.078;2024-02-14T05:31:52;-10.17;74.60
70214;DHT22;60138;55.808;37.078;2024-02-14T05:34:18;-10.16;73.80
70214;DHT22;60138;55.808;37.078;2024-02-14T05:36:44;-10.12;74.12
70214;DHT22;60138;55.808;37.078;2024-02-14T05:39:10;-10.05;74.24
70214;DHT22;60138;55.808;37.078;2024-02-14T05:41:35;-10.03;73.06
70214;DHT22;60138;55.808;37.078;2024-02-14T05:44:01;-9.97;73.94
70214;DHT22;60138;55.808;37.078;2024-02-14T05:46:27;-9.93;73.83
70214;DHT22;60138;55.808;37.078;2024-02-14T05:48:53;-9.89;73.90
70214;DHT22;60138;55.808;37.078;2024-02-14T05:51:19;-9.85;74.22
70214;DHT22;60138;55.808;37.078;2024-02-14T05:53:45;-9.82;73.98
70214;DHT22;60138;55.808;37.078;2024-02-14T05:56:10;-9.77;73.99
70214;DHT22;60138;55.808;37.078;2024-02-14T05:58:36;-9.73;73.78
70214;DHT22;60138;55.808;37.078;2024-02-14T06:01:02;-9.70;73.93
70214;DHT22;60138;55.808;37.078;2024-02-14T06:03:28;-9.67;73.67
70214;DHT22;60138;55.808;37.078;2024-02-14T06:05:54;-9.59;73.63
70214;DHT22;60138;55.808;37.078;2024-02-14T06:08:19;-9.54;73.49
70214;DHT22;60138;55.808;37.078;2024-02-14T06:10:45;-9.48;73.95
70214;DHT22;60138;55.808;37.078;2024-02-14T06:13:11;-9.45;73.58
70214;DHT22;60138;55.808;37.078;2024-02-14T06:15:37;-9.41;73.40
70214;DHT22;60138;55.808;37.078;2024-02-14T06:18:03;-9.34;73.43
70214;DHT22;60138;55.808;37.078;2024-02-14T06:20:28;-9.30;72.55
70214;DHT22;60138;55.808;37.078;2024-02-14T06:22:54;-9.24;72.33
70214;DHT22;60138;55.808;37.078;2024-02-14T06:25:20;-9.18;72.54
70214;DHT22;60138;55.808;37.078;2024-02-14T06:28:00;-9.11;72.73
70214;DHT22;60138;55.808;37.078;2024-02-14T06:30:26;-9.05;72.99
70214;DHT22;60138;55.808;37.078;2024-02-14T06:32:52;-9.03;72.32
70214;DHT22;60138;55.808;37.078;2024-02-14T06:35:18;-8.96;73.06
70214;DHT22;60138;55.808;37.078;2024-02-14T06:37:45;-8.89;73.05
70214;DHT22;60138;55.808;37.078;2024-02-14T06:40:11;-8.82;72.93
70214;DHT22;60138;55.808;37.078;2024-02-14T06:42:37;-8.74;72.37
70214;DHT22;60138;55.808;37.078;2024-02-14T06:45:03;-8.68;71.48
70214;DHT22;60138;55.808;37.078;2024-02-14T06:47:33;-8.65;70.97
70214;DHT22;60138;55.808;37.078;2024-02-14T06:49:58;-8.58;72.35
70214;DHT22;60138;55.808;37.078;2024-02-14T06:52:24;-8.51;72.57
70214;DHT22;60138;55.808;37.078;2024-02-14T06:54:50;-8.43;72.22
70214;DHT22;60138;55.808;37.078;2024-02-14T06:57:16;-8.35;72.80
70214;DHT22;60138;55.808;37.078;2024-02-14T06:59:42;-8.30;73.54
70214;DHT22;60138;55.808;37.078;2024-02-14T07:02:07;-8.23;73.72
70214;DHT22;60138;55.808;37.078;2024-02-14T07:04:33;-8.11;73.93
70214;DHT22;60138;55.808;37.078;2024-02-14T07:06:59;-7.94;73.99
70214;DHT22;60138;55.808;37.078;2024-02-14T07:09:25;-7.77;73.88
70214;DHT22;60138;55.808;37.078;2024-02-14T07:11:51;-7.61;74.13
70214;DHT22;60138;55.808;37.078;2024-02-14T07:14:17;-7.52;73.65
70214;DHT22;60138;55.808;37.078;2024-02-14T07:16:42;-7.41;72.92
70214;DHT22;60138;55.808;37.078;2024-02-14T07:19:08;-7.37;72.29
70214;DHT22;60138;55.808;37.078;2024-02-14T07:21:34;-7.31;70.62
70214;DHT22;60138;55.808;37.078;2024-02-14T07:24:00;-7.23;70.13
70214;DHT22;60138;55.808;37.078;2024-02-14T07:26:25;-7.18;69.73
70214;DHT22;60138;55.808;37.078;2024-02-14T07:28:51;-7.07;71.38
70214;DHT22;60138;55.808;37.078;2024-02-14T07:31:17;-6.96;72.32
70214;DHT22;60138;55.808;37.078;2024-02-14T07:33:43;-6.88;71.93
70214;DHT22;60138;55.808;37.078;2024-02-14T07:36:08;-6.76;71.84
70214;DHT22;60138;55.808;37.078;2024-02-14T07:38:34;-6.66;71.82
70214;DHT22;60138;55.808;37.078;2024-02-14T07:41:00;-6.63;71.62
70214;DHT22;60138;55.808;37.078;2024-02-14T07:43:32;-6.55;71.95
70214;DHT22;60138;55.808;37.078;2024-02-14T07:45:58;-6.49;72.54
70214;DHT22;60138;55.808;37.078;2024-02-14T07:48:24;-6.44;70.70
70214;DHT22;60138;55.808;37.078;2024-02-14T07:50:50;-6.33;71.42
70214;DHT22;60138;55.808;37.078;2024-02-14T07:53:15;-6.26;71.42
70214;DHT22;60138;55.808;37.078;2024-02-14T07:55:41;-6.19;71.79
70214;DHT22;60138;55.808;37.078;2024-02-14T07:58:07;-6.07;71.07
70214;DHT22;60138;55.808;37.078;2024-02-14T08:00:35;-6.01;71.35
70214;DHT22;60138;55.808;37.078;2024-02-14T08:03:01;-5.92;70.74
70214;DHT22;60138;55.808;37.078;2024-02-14T08:05:26;-5.82;71.03
70214;DHT22;60138;55.808;37.078;2024-02-14T08:07:52;-5.79;70.68
70214;DHT22;60138;55.808;37.078;2024-02-14T08:10:18;-5.75;69.83
70214;DHT22;60138;55.808;37.078;2024-02-14T08:12:44;-5.71;71.37
70214;DHT22;60138;55.808;37.078;2024-02-14T08:15:10;-5.68;70.63
70214;DHT22;60138;55.808;37.078;2024-02-14T08:17:36;-5.64;69.79
70214;DHT22;60138;55.808;37.078;2024-02-14T08:20:03;-5.67;69.27
70214;DHT22;60138;55.808;37.078;2024-02-14T08:22:30;-5.65;68.75
70214;DHT22;60138;55.808;37.078;2024-02-14T08:24:56;-5.63;70.69
70214;DHT22;60138;55.808;37.078;2024-02-14T08:27:22;-5.62;67.81
70214;DHT22;60138;55.808;37.078;2024-02-14T08:29:48;-5.60;69.61
70214;DHT22;60138;55.808;37.078;2024-02-14T08:32:13;-5.58;69.43
70214;DHT22;60138;55.808;37.078;2024-02-14T08:34:39;-5.63;69.47
70214;DHT22;60138;55.808;37.078;2024-02-14T08:37:05;-5.61;66.99
70214;DHT22;60138;55.808;37.078;2024-02-14T08:39:30;-5.55;69.39
70214;DHT22;60138;55.808;37.078;2024-02-14T08:41:56;-5.47;69.45
70214;DHT22;60138;55.808;37.078;2024-02-14T08:44:22;-5.44;70.00
70214;DHT22;60138;55.808;37.078;2024-02-14T08:46:48;-5.39;69.56
70214;DHT22;60138;55.808;37.078;2024-02-14T08:49:13;-5.32;70.04
70214;DHT22;60138;55.808;37.078;2024-02-14T08:51:39;-5.28;68.29
70214;DHT22;60138;55.808;37.078;2024-02-14T08:54:05;-5.24;70.77
70214;DHT22;60138;55.808;37.078;2024-02-14T08:56:31;-5.29;70.64
70214;DHT22;60138;55.808;37.078;2024-02-14T08:58:57;-5.16;70.77
70214;DHT22;60138;55.808;37.078;2024-02-14T09:01:23;-5.05;70.82
70214;DHT22;60138;55.808;37.078;2024-02-14T09:03:49;-5.01;69.31
70214;DHT22;60138;55.808;37.078;2024-02-14T09:06:16;-5.01;69.99
70214;DHT22;60138;55.808;37.078;2024-02-14T09:08:43;-4.99;70.93
70214;DHT22;60138;55.808;37.078;2024-02-14T09:11:09;-4.96;70.45
70214;DHT22;60138;55.808;37.078;2024-02-14T09:13:35;-4.87;70.13
70214;DHT22;60138;55.808;37.078;2024-02-14T09:16:00;-4.81;69.71
70214;DHT22;60138;55.808;37.078;2024-02-14T09:18:26;-4.83;66.75
70214;DHT22;60138;55.808;37.078;2024-02-14T09:20:52;-4.83;70.10
70214;DHT22;60138;55.808;37.078;2024-02-14T09:23:18;-4.71;70.81
70214;DHT22;60138;55.808;37.078;2024-02-14T09:25:44;-4.67;70.27
70214;DHT22;60138;55.808;37.078;2024-02-14T09:28:09;-4.69;68.11
70214;DHT22;60138;55.808;37.078;2024-02-14T09:30:35;-4.64;70.52
70214;DHT22;60138;55.808;37.078;2024-02-14T09:33:01;-4.61;67.92
70214;DHT22;60138;55.808;37.078;2024-02-14T09:35:27;-4.52;68.68
70214;DHT22;60138;55.808;37.078;2024-02-14T09:37:52;-4.42;68.97
70214;DHT22;60138;55.808;37.078;2024-02-14T09:40:18;-4.34;67.96
70214;DHT22;60138;55.808;37.078;2024-02-14T09:42:56;-4.26;68.91
70214;DHT22;60138;55.808;37.078;2024-02-14T09:45:26;-4.21;68.36
70214;DHT22;60138;55.808;37.078;2024-02-14T09:47:53;-4.21;66.96
70214;DHT22;60138;55.808;37.078;2024-02-14T09:50:20;-4.21;68.86
70214;DHT22;60138;55.808;37.078;2024-02-14T09:52:49;-4.26;69.84
70214;DHT22;60138;55.808;37.078;2024-02-14T09:55:16;-4.23;69.49
70214;DHT22;60138;55.808;37.078;2024-02-14T09:57:44;-4.29;66.09
70214;DHT22;60138;55.808;37.078;2024-02-14T10:00:13;-4.20;68.08
70214;DHT22;60138;55.808;37.078;2024-02-14T10:02:40;-4.14;69.54
70214;DHT22;60138;55.808;37.078;2024-02-14T10:05:07;-4.12;68.76
70214;DHT22;60138;55.808;37.078;2024-02-14T10:07:43;-4.11;67.43
70214;DHT22;60138;55.808;37.078;2024-02-14T10:10:09;-4.06;68.35
70214;DHT22;60138;55.808;37.078;2024-02-14T10:12:35;-3.95;68.25
70214;DHT22;60138;55.808;37.078;2024-02-14T10:15:01;-3.89;69.87
70214;DHT22;60138;55.808;37.078;2024-02-14T10:17:27;-3.79;69.94
70214;DHT22;60138;55.808;37.078;2024-02-14T10:20:01;-3.71;68.30
70214;DHT22;60138;55.808;37.078;2024-02-14T10:22:39;-3.70;66.30
70214;DHT22;60138;55.808;37.078;2024-02-14T10:25:05;-3.74;67.54
70214;DHT22;60138;55.808;37.078;2024-02-14T10:27:31;-3.71;68.46
70214;DHT22;60138;55.808;37.078;2024-02-14T10:29:57;-3.74;66.25
70214;DHT22;60138;55.808;37.078;2024-02-14T10:32:23;-3.77;64.66
70214;DHT22;60138;55.808;37.078;2024-02-14T10:34:49;-3.75;68.08
70214;DHT22;60138;55.808;37.078;2024-02-14T10:37:15;-3.68;68.21
70214;DHT22;60138;55.808;37.078;2024-02-14T10:39:41;-3.72;66.45
70214;DHT22;60138;55.808;37.078;2024-02-14T10:42:07;-3.76;66.35
70214;DHT22;60138;55.808;37.078;2024-02-14T10:44:34;-3.74;68.05
70214;DHT22;60138;55.808;37.078;2024-02-14T10:47:02;-3.67;67.07
70214;DHT22;60138;55.808;37.078;2024-02-14T10:49:29;-3.58;68.68
70214;DHT22;60138;55.808;37.078;2024-02-14T10:51:57;-3.54;68.61
70214;DHT22;60138;55.808;37.078;2024-02-14T10:54:24;-3.51;67.78
70214;DHT22;60138;55.808;37.078;2024-02-14T10:56:50;-3.54;68.78
70214;DHT22;60138;55.808;37.078;2024-02-14T10:59:21;-3.50;68.90
70214;DHT22;60138;55.808;37.078;2024-02-14T11:01:49;-3.49;68.50
70214;DHT22;60138;55.808;37.078;2024-02-14T11:04:16;-3.49;68.55
70214;DHT22;60138;55.808;37.078;2024-02-14T11:06:48;-3.48;68.67
70214;DHT22;60138;55.808;37.078;2024-02-14T11:09:17;-3.48;67.45
70214;DHT22;60138;55.808;37.078;2024-02-14T11:11:44;-3.49;65.37
70214;DHT22;60138;55.808;37.078;2024-02-14T11:14:10;-3.48;67.96
70214;DHT22;60138;55.808;37.078;2024-02-14T11:16:37;-3.42;67.91
70214;DHT22;60138;55.808;37.078;2024-02-14T11:19:09;-3.47;67.55
70214;DHT22;60138;55.808;37.078;2024-02-14T11:21:46;-3.53;66.70
70214;DHT22;60138;55.808;37.078;2024-02-14T11:24:13;-3.52;65.30
70214;DHT22;60138;55.808;37.078;2024-02-14T11:26:47;-3.55;66.30
70214;DHT22;60138;55.808;37.078;2024-02-14T11:29:17;-3.55;67.46
70214;DHT22;60138;55.808;37.078;2024-02-14T11:31:44;-3.54;68.01
70214;DHT22;60138;55.808;37.078;2024-02-14T11:34:13;-3.52;68.26
70214;DHT22;60138;55.808;37.078;2024-02-14T11:36:43;-3.54;68.56
70214;DHT22;60138;55.808;37.078;2024-02-14T11:39:11;-3.60;68.46
70214;DHT22;60138;55.808;37.078;2024-02-14T11:41:37;-3.58;67.43
70214;DHT22;60138;55.808;37.078;2024-02-14T11:44:06;-3.58;67.14
70214;DHT22;60138;55.808;37.078;2024-02-14T11:46:36;-3.61;67.30
70214;DHT22;60138;55.808;37.078;2024-02-14T11:49:04;-3.61;67.04
70214;DHT22;60138;55.808;37.078;2024-02-14T11:51:33;-3.63;67.94
70214;DHT22;60138;55.808;37.078;2024-02-14T11:53:59;-3.64;68.97
70214;DHT22;60138;55.808;37.078;2024-02-14T11:56:25;-3.68;68.02
70214;DHT22;60138;55.808;37.078;2024-02-14T11:58:52;-3.75;68.33
70214;DHT22;60138;55.808;37.078;2024-02-14T12:01:18;-3.81;69.68
70214;DHT22;60138;55.808;37.078;2024-02-14T12:03:44;-3.86;67.90
70214;DHT22;60138;55.808;37.078;2024-02-14T12:06:10;-3.90;68.23
70214;DHT22;60138;55.808;37.078;2024-02-14T12:08:37;-3.89;68.30
70214;DHT22;60138;55.808;37.078;2024-02-14T12:11:03;-3.90;70.68
70214;DHT22;60138;55.808;37.078;2024-02-14T12:13:30;-4.04;67.68
70214;DHT22;60138;55.808;37.078;2024-02-14T12:15:56;-4.07;69.78
70214;DHT22;60138;55.808;37.078;2024-02-14T12:18:22;-4.09;68.01
70214;DHT22;60138;55.808;37.078;2024-02-14T12:20:47;-4.08;68.33
70214;DHT22;60138;55.808;37.078;2024-02-14T12:23:18;-4.10;68.83
70214;DHT22;60138;55.808;37.078;2024-02-14T12:25:45;-4.10;69.31
70214;DHT22;60138;55.808;37.078;2024-02-14T12:28:18;-4.10;68.10
70214;DHT22;60138;55.808;37.078;2024-02-14T12:30:49;-4.08;69.07
70214;DHT22;60138;55.808;37.078;2024-02-14T12:33:16;-4.05;69.24
70214;DHT22;60138;55.808;37.078;2024-02-14T12:35:44;-4.08;68.74
70214;DHT22;60138;55.808;37.078;2024-02-14T12:38:12;-4.09;69.10
70214;DHT22;60138;55.808;37.078;2024-02-14T12:40:38;-4.12;69.43
70214;DHT22;60138;55.808;37.078;2024-02-14T12:43:04;-4.11;69.38
70214;DHT22;60138;55.808;37.078;2024-02-14T12:45:30;-4.16;67.81
70214;DHT22;60138;55.808;37.078;2024-02-14T12:47:56;-4.15;69.20
70214;DHT22;60138;55.808;37.078;2024-02-14T12:50:22;-4.16;68.78
70214;DHT22;60138;55.808;37.078;2024-02-14T12:52:48;-4.17;69.20
70214;DHT22;60138;55.808;37.078;2024-02-14T12:55:13;-4.20;68.14
70214;DHT22;60138;55.808;37.078;2024-02-14T12:57:39;-4.22;68.30
70214;DHT22;60138;55.808;37.078;2024-02-14T13:00:05;-4.27;69.68
70214;DHT22;60138;55.808;37.078;2024-02-14T13:02:32;-4.31;68.45
70214;DHT22;60138;55.808;37.078;2024-02-14T13:04:58;-4.28;69.46
70214;DHT22;60138;55.808;37.078;2024-02-14T13:07:24;-4.32;68.24
70214;DHT22;60138;55.808;37.078;2024-02-14T13:09:50;-4.37;66.49
70214;DHT22;60138;55.808;37.078;2024-02-14T13:12:15;-4.41;67.62
70214;DHT22;60138;55.808;37.078;2024-02-14T13:14:41;-4.46;67.04
70214;DHT22;60138;55.808;37.078;2024-02-14T13:17:07;-4.42;69.29
70214;DHT22;60138;55.808;37.078;2024-02-14T13:19:33;-4.45;67.68
70214;DHT22;60138;55.808;37.078;2024-02-14T13:21:58;-4.46;67.27
70214;DHT22;60138;55.808;37.078;2024-02-14T13:24:24;-4.51;68.65
70214;DHT22;60138;55.808;37.078;2024-02-14T13:26:50;-4.55;67.61
70214;DHT22;60138;55.808;37.078;2024-02-14T13:29:15;-4.55;69.19
70214;DHT22;60138;55.808;37.078;2024-02-14T13:31:41;-4.58;69.74
70214;DHT22;60138;55.808;37.078;2024-02-14T13:34:07;-4.61;69.30
70214;DHT22;60138;55.808;37.078;2024-02-14T13:36:33;-4.60;68.94
70214;DHT22;60138;55.808;37.078;2024-02-14T13:38:59;-4.65;68.73
70214;DHT22;60138;55.808;37.078;2024-02-14T13:41:25;-4.70;68.91
70214;DHT22;60138;55.808;37.078;2024-02-14T13:43:50;-4.74;69.61
70214;DHT22;60138;55.808;37.078;2024-02-14T13:46:16;-4.76;69.81
70214;DHT22;60138;55.808;37.078;2024-02-14T13:48:42;-4.75;69.68
70214;DHT22;60138;55.808;37.078;2024-02-14T13:51:07;-4.78;67.56
70214;DHT22;60138;55.808;37.078;2024-02-14T13:53:33;-4.81;69.42
70214;DHT22;60138;55.808;37.078;2024-02-14T13:55:59;-4.85;67.59
70214;DHT22;60138;55.808;37.078;2024-02-14T13:58:25;-4.88;69.07
70214;DHT22;60138;55.808;37.078;2024-02-14T14:00:54;-4.93;69.10
70214;DHT22;60138;55.808;37.078;2024-02-14T14:03:20;-4.94;69.31
70214;DHT22;60138;55.808;37.078;2024-02-14T14:05:46;-4.97;69.87
70214;DHT22;60138;55.808;37.078;2024-02-14T14:08:11;-4.97;69.13
70214;DHT22;60138;55.808;37.078;2024-02-14T14:10:37;-4.96;69.81
70214;DHT22;60138;55.808;37.078;2024-02-14T14:13:03;-4.96;68.85
70214;DHT22;60138;55.808;37.078;2024-02-14T14:15:29;-5.00;68.99
70214;DHT22;60138;55.808;37.078;2024-02-14T14:17:54;-5.00;69.23
70214;DHT22;60138;55.808;37.078;2024-02-14T14:20:20;-5.00;68.68
70214;DHT22;60138;55.808;37.078;2024-02-14T14:22:46;-5.01;68.55
70214;DHT22;60138;55.808;37.078;2024-02-14T14:25:12;-5.03;69.81
70214;DHT22;60138;55.808;37.078;2024-02-14T14:27:37;-5.05;69.79
70214;DHT22;60138;55.808;37.078;2024-02-14T14:30:04;-5.09;70.22
70214;DHT22;60138;55.808;37.078;2024-02-14T14:32:31;-5.11;70.01
70214;DHT22;60138;55.808;37.078;2024-02-14T14:34:57;-5.15;68.61
70214;DHT22;60138;55.808;37.078;2024-02-14T14:37:23;-5.14;69.33
70214;DHT22;60138;55.808;37.078;2024-02-14T14:39:48;-5.14;70.36
70214;DHT22;60138;55.808;37.078;2024-02-14T14:42:14;-5.14;69.65
70214;DHT22;60138;55.808;37.078;2024-02-14T14:44:40;-5.13;69.75
70214;DHT22;60138;55.808;37.078;2024-02-14T14:47:06;-5.13;69.43
70214;DHT22;60138;55.808;37.078;2024-02-14T14:49:32;-5.16;69.09
70214;DHT22;60138;55.808;37.078;2024-02-14T14:51:58;-5.17;68.83
70214;DHT22;60138;55.808;37.078;2024-02-14T14:54:23;-5.20;69.19
70214;DHT22;60138;55.808;37.078;2024-02-14T14:56:53;-5.19;70.02
70214;DHT22;60138;55.808;37.078;2024-02-14T14:59:19;-5.19;68.92
70214;DHT22;60138;55.808;37.078;2024-02-14T15:01:45;-5.20;69.59
70214;DHT22;60138;55.808;37.078;2024-02-14T15:04:11;-5.24;69.46
70214;DHT22;60138;55.808;37.078;2024-02-14T15:06:36;-5.24;70.24
70214;DHT22;60138;55.808;37.078;2024-02-14T15:09:02;-5.26;69.45
70214;DHT22;60138;55.808;37.078;2024-02-14T15:11:28;-5.25;69.65
70214;DHT22;60138;55.808;37.078;2024-02-14T15:13:54;-5.26;69.61
70214;DHT22;60138;55.808;37.078;2024-02-14T15:16:20;-5.28;69.77